createdAt,value
2018-10-01T00:02:13.488Z,58.82
2018-10-01T00:04:42.493Z,58.85
2018-10-01T00:07:11.507Z,58.85
2018-10-01T00:09:40.506Z,58.85
2018-10-01T00:12:09.505Z,59.03
2018-10-01T00:14:38.534Z,59.06
2018-10-01T00:17:07.584Z,59.19
2018-10-01T00:19:41.756Z,59.27
2018-10-01T00:22:15.915Z,59.29
2018-10-01T00:24:44.954Z,59.27
2018-10-01T00:27:13.985Z,59.42
2018-10-01T00:29:42.979Z,59.33
2018-10-01T00:32:12.052Z,59.33
2018-10-01T00:34:41.116Z,59.16
2018-10-01T00:37:10.161Z,59.31
2018-10-01T00:39:39.209Z,59.46
2018-10-01T00:42:08.220Z,59.09
2018-10-01T00:44:37.355Z,59.27
2018-10-01T00:47:06.500Z,59.47
2018-10-01T00:49:35.598Z,59.23
2018-10-01T00:52:05.220Z,59.33
2018-10-01T00:54:34.300Z,59.27
2018-10-01T00:57:03.614Z,59.30
2018-10-01T00:59:32.623Z,59.46
2018-10-01T01:02:01.688Z,59.46
2018-10-01T01:04:30.732Z,59.47
2018-10-01T01:06:59.797Z,59.25
2018-10-01T01:09:28.818Z,59.19
2018-10-01T01:11:57.883Z,59.16
2018-10-01T01:14:26.914Z,59.33
2018-10-01T01:16:55.940Z,59.43
2018-10-01T01:19:25.785Z,59.51
2018-10-01T01:21:54.880Z,59.52
2018-10-01T01:24:23.902Z,59.71
2018-10-01T01:26:52.974Z,59.66
2018-10-01T01:29:21.985Z,59.64
2018-10-01T01:31:51.162Z,59.68
2018-10-01T01:34:20.236Z,59.98
2018-10-01T01:36:49.327Z,60.05
2018-10-01T01:39:18.480Z,59.88
2018-10-01T01:41:47.570Z,59.91
2018-10-01T01:44:16.721Z,60.00
2018-10-01T01:46:45.890Z,60.05
2018-10-01T01:49:14.962Z,60.08
2018-10-01T01:51:44.008Z,59.94
2018-10-01T01:54:14.033Z,59.99
2018-10-01T01:56:43.068Z,59.95
2018-10-01T01:59:12.101Z,59.86
2018-10-01T02:01:44.018Z,60.18
2018-10-01T02:04:13.011Z,60.13
2018-10-01T02:06:42.054Z,60.02
2018-10-01T02:09:12.122Z,60.19
2018-10-01T02:11:41.330Z,60.13
2018-10-01T02:14:10.455Z,60.26
2018-10-01T02:16:39.549Z,60.22
2018-10-01T02:19:08.578Z,60.28
2018-10-01T02:21:37.599Z,60.25
2018-10-01T02:24:06.668Z,60.25
2018-10-01T02:26:35.731Z,60.37
2018-10-01T02:29:04.856Z,60.41
2018-10-01T02:31:33.961Z,60.35
2018-10-01T02:34:03.121Z,60.42
2018-10-01T02:36:32.150Z,60.52
2018-10-01T02:39:02.231Z,60.51
2018-10-01T02:41:31.245Z,60.94
2018-10-01T02:44:00.274Z,60.86
2018-10-01T02:46:29.325Z,60.96
2018-10-01T02:48:58.358Z,61.04
2018-10-01T02:51:27.469Z,61.12
2018-10-01T02:54:01.653Z,61.23
2018-10-01T02:56:30.669Z,61.24
2018-10-01T02:58:59.797Z,61.49
2018-10-01T03:01:28.933Z,61.49
2018-10-01T03:03:57.915Z,61.56
2018-10-01T03:06:27.030Z,61.81
2018-10-01T03:08:56.060Z,61.93
2018-10-01T03:11:31.767Z,61.59
2018-10-01T03:14:00.798Z,61.47
2018-10-01T03:16:29.899Z,61.76
2018-10-01T03:18:58.925Z,61.68
2018-10-01T03:21:27.952Z,61.74
2018-10-01T03:23:57.112Z,61.72
2018-10-01T03:26:26.268Z,61.90
2018-10-01T03:28:55.363Z,62.10
2018-10-01T03:31:24.432Z,62.06
2018-10-01T03:33:53.625Z,62.16
2018-10-01T03:36:22.726Z,62.32
2018-10-01T03:38:51.754Z,62.46
2018-10-01T03:41:20.866Z,62.46
2018-10-01T03:43:49.917Z,62.66
2018-10-01T03:46:19.033Z,62.70
2018-10-01T03:48:48.200Z,62.81
2018-10-01T03:51:17.292Z,62.79
2018-10-01T03:53:46.314Z,62.76
2018-10-01T03:56:16.030Z,62.90
2018-10-01T03:58:45.085Z,62.89
2018-10-01T04:01:14.075Z,62.95
2018-10-01T04:03:43.113Z,63.14
2018-10-01T04:06:12.214Z,63.08
2018-10-01T04:08:41.481Z,62.98
2018-10-01T04:11:10.718Z,63.07
2018-10-01T04:13:39.825Z,62.85
2018-10-01T04:16:08.884Z,63.04
2018-10-01T04:18:37.883Z,63.27
2018-10-01T04:21:07.261Z,63.53
2018-10-01T04:23:36.280Z,63.54
2018-10-01T04:26:05.275Z,63.75
2018-10-01T04:28:34.294Z,63.56
2018-10-01T04:31:03.372Z,63.71
2018-10-01T04:33:32.425Z,63.69
2018-10-01T04:36:01.423Z,63.60
2018-10-01T04:38:30.516Z,63.52
2018-10-01T04:41:00.467Z,63.50
2018-10-01T04:43:29.555Z,63.45
2018-10-01T04:45:58.595Z,63.46
2018-10-01T04:48:27.667Z,63.29
2018-10-01T04:50:56.713Z,63.25
2018-10-01T04:53:26.086Z,63.17
2018-10-01T04:55:55.107Z,63.07
2018-10-01T04:58:25.011Z,62.92
2018-10-01T05:00:53.969Z,62.73
2018-10-01T05:03:22.964Z,63.00
2018-10-01T05:05:52.613Z,63.16
2018-10-01T05:08:21.628Z,63.26
2018-10-01T05:10:50.626Z,63.54
2018-10-01T05:13:19.619Z,63.67
2018-10-01T05:15:48.591Z,63.83
2018-10-01T05:18:17.745Z,63.89
2018-10-01T05:20:46.922Z,64.01
2018-10-01T05:23:15.957Z,64.00
2018-10-01T05:25:45.035Z,63.96
2018-10-01T05:28:14.253Z,64.04
2018-10-01T05:30:43.800Z,64.24
2018-10-01T05:33:13.614Z,64.46
2018-10-01T05:35:42.709Z,64.55
2018-10-01T05:38:11.732Z,64.60
2018-10-01T05:40:40.795Z,64.88
2018-10-01T05:43:09.817Z,65.19
2018-10-01T05:45:38.817Z,65.32
2018-10-01T05:48:07.914Z,65.20
2018-10-01T05:50:37.080Z,65.30
2018-10-01T05:53:06.103Z,65.57
2018-10-01T05:55:35.147Z,65.65
2018-10-01T05:58:04.378Z,65.42
2018-10-01T06:00:35.180Z,65.55
2018-10-01T06:03:04.333Z,65.52
2018-10-01T06:05:33.349Z,65.45
2018-10-01T06:08:02.936Z,65.62
2018-10-01T06:10:31.984Z,65.58
2018-10-01T06:13:01.081Z,65.62
2018-10-01T06:15:30.153Z,65.97
2018-10-01T06:17:59.893Z,65.90
2018-10-01T06:20:29.037Z,65.87
2018-10-01T06:22:58.615Z,65.96
2018-10-01T06:25:29.555Z,65.95
2018-10-01T06:27:58.728Z,66.11
2018-10-01T06:30:27.922Z,66.13
2018-10-01T06:32:57.142Z,66.05
2018-10-01T06:35:26.295Z,65.92
2018-10-01T06:37:55.440Z,66.05
2018-10-01T06:40:24.453Z,65.95
2018-10-01T06:42:54.158Z,66.00
2018-10-01T06:45:23.540Z,66.01
2018-10-01T06:47:52.720Z,65.91
2018-10-01T06:50:21.757Z,65.86
2018-10-01T06:52:51.116Z,65.74
2018-10-01T06:55:20.111Z,65.63
2018-10-01T06:57:49.270Z,65.65
2018-10-01T07:00:18.376Z,65.69
2018-10-01T07:02:47.441Z,65.84
2018-10-01T07:05:17.299Z,65.73
2018-10-01T07:07:46.409Z,65.77
2018-10-01T07:10:15.590Z,65.64
2018-10-01T07:12:44.647Z,65.61
2018-10-01T07:15:13.710Z,65.70
2018-10-01T07:17:42.709Z,65.38
2018-10-01T07:20:17.971Z,65.62
2018-10-01T07:22:48.833Z,65.48
2018-10-01T07:25:18.386Z,65.50
2018-10-01T07:27:47.799Z,65.08
2018-10-01T07:30:19.287Z,64.91
2018-10-01T07:32:48.519Z,64.86
2018-10-01T07:35:18.161Z,64.58
2018-10-01T07:37:47.638Z,64.20
2018-10-01T07:40:17.759Z,64.14
2018-10-01T07:42:47.954Z,64.05
2018-10-01T07:45:20.780Z,63.92
2018-10-01T07:53:23.731Z,63.98
2018-10-01T07:55:54.315Z,63.93
2018-10-01T07:58:23.598Z,63.78
2018-10-01T08:00:52.764Z,63.73
2018-10-01T08:03:21.839Z,63.43
2018-10-01T08:05:51.040Z,63.60
2018-10-01T08:08:21.434Z,63.47
2018-10-01T08:10:50.978Z,63.17
2018-10-01T08:13:20.041Z,63.18
2018-10-01T08:15:49.229Z,62.84
2018-10-01T08:18:18.490Z,62.85
2018-10-01T08:20:49.426Z,62.55
2018-10-01T08:23:20.966Z,62.16
2018-10-01T08:25:50.293Z,61.84
2018-10-01T08:28:19.533Z,61.67
2018-10-01T08:30:50.124Z,61.74
2018-10-01T08:33:19.242Z,61.23
2018-10-01T08:35:48.663Z,61.19
2018-10-01T08:38:17.902Z,61.40
2018-10-01T08:40:46.976Z,61.37
2018-10-01T08:43:16.116Z,61.63
2018-10-01T08:45:45.293Z,61.43
2018-10-01T08:48:15.662Z,61.29
2018-10-01T08:50:51.822Z,61.38
2018-10-01T08:53:24.592Z,60.78
2018-10-01T08:55:54.057Z,60.98
2018-10-01T08:58:23.243Z,60.65
2018-10-01T09:00:52.344Z,60.69
2018-10-01T09:03:21.379Z,60.58
2018-10-01T09:05:50.739Z,60.25
2018-10-01T09:08:20.079Z,60.15
2018-10-01T09:10:49.130Z,60.34
2018-10-01T09:13:18.466Z,59.93
2018-10-01T09:15:52.441Z,59.62
2018-10-01T09:18:23.559Z,59.69
2018-10-01T09:20:52.788Z,59.62
2018-10-01T09:23:22.009Z,59.79
2018-10-01T09:25:51.257Z,59.71
2018-10-01T09:28:26.540Z,59.69
2018-10-01T09:30:55.693Z,59.38
2018-10-01T09:33:25.037Z,59.23
2018-10-01T09:35:54.176Z,59.31
2018-10-01T09:38:25.727Z,59.24
2018-10-01T09:40:55.248Z,59.23
2018-10-01T09:43:24.363Z,59.00
2018-10-01T09:45:54.486Z,58.80
2018-10-01T09:48:23.703Z,58.85
2018-10-01T09:50:52.803Z,59.04
2018-10-01T09:53:21.875Z,58.83
2018-10-01T09:55:51.167Z,58.74
2018-10-01T09:58:20.528Z,58.97
2018-10-01T10:00:55.200Z,58.90
2018-10-01T10:03:24.345Z,58.86
2018-10-01T10:05:54.668Z,58.50
2018-10-01T10:08:23.907Z,57.89
2018-10-01T10:10:53.160Z,58.45
2018-10-01T10:13:22.178Z,58.70
2018-10-01T10:15:51.379Z,58.36
2018-10-01T10:18:21.034Z,57.55
2018-10-01T10:20:50.260Z,57.88
2018-10-01T10:26:24.691Z,57.94
2018-10-01T10:28:53.861Z,57.86
2018-10-01T10:31:22.979Z,57.96
2018-10-01T10:33:52.083Z,57.73
2018-10-01T10:36:21.658Z,57.56
2018-10-01T10:38:50.943Z,57.52
2018-10-01T10:41:20.316Z,57.82
2018-10-01T10:43:49.432Z,57.78
2018-10-01T10:46:18.549Z,57.64
2018-10-01T10:48:47.653Z,57.42
2018-10-01T10:51:26.446Z,57.18
2018-10-01T10:53:57.136Z,56.92
2018-10-01T10:56:26.192Z,56.91
2018-10-01T10:58:55.535Z,56.42
2018-10-01T11:01:28.929Z,56.45
2018-10-01T11:04:01.425Z,56.15
2018-10-01T11:06:30.672Z,56.48
2018-10-01T11:09:06.912Z,56.13
2018-10-01T11:12:02.173Z,56.40
2018-10-01T11:14:31.523Z,56.06
2018-10-01T11:17:01.693Z,56.16
2018-10-01T11:19:31.726Z,56.08
2018-10-01T11:22:01.595Z,55.84
2018-10-01T11:24:30.955Z,55.63
2018-10-01T11:27:00.259Z,56.27
2018-10-01T11:29:29.279Z,56.51
2018-10-01T11:31:58.480Z,56.43
2018-10-01T11:34:27.836Z,55.88
2018-10-01T11:36:56.804Z,55.52
2018-10-01T11:39:25.922Z,55.71
2018-10-01T11:41:55.679Z,55.41
2018-10-01T11:44:24.743Z,54.94
2018-10-01T11:46:53.848Z,55.30
2018-10-01T11:49:24.073Z,54.87
2018-10-01T11:51:53.165Z,54.76
2018-10-01T11:54:23.219Z,54.50
2018-10-01T11:56:52.459Z,54.74
2018-10-01T11:59:22.261Z,55.08
2018-10-01T12:01:51.330Z,55.23
2018-10-01T12:04:20.610Z,55.46
2018-10-01T12:06:51.006Z,55.22
2018-10-01T12:09:20.293Z,55.54
2018-10-01T12:11:49.310Z,55.65
2018-10-01T12:14:19.939Z,55.10
2018-10-01T12:16:49.455Z,54.97
2018-10-01T12:19:18.715Z,55.24
2018-10-01T12:21:48.233Z,55.26
2018-10-01T12:24:17.819Z,55.85
2018-10-01T12:26:47.575Z,55.42
2018-10-01T12:29:17.021Z,55.35
2018-10-01T12:31:46.469Z,55.46
2018-10-01T12:34:15.856Z,55.46
2018-10-01T12:36:45.108Z,55.20
2018-10-01T12:39:14.303Z,55.07
2018-10-01T12:41:45.095Z,54.61
2018-10-01T12:44:14.447Z,54.92
2018-10-01T12:46:43.942Z,54.80
2018-10-01T12:49:13.550Z,55.03
2018-10-01T12:51:44.875Z,54.86
2018-10-01T12:54:15.511Z,54.80
2018-10-01T12:56:44.799Z,54.99
2018-10-01T12:59:14.001Z,54.66
2018-10-01T13:01:43.081Z,54.82
2018-10-01T13:04:12.177Z,54.86
2018-10-01T13:06:41.301Z,54.55
2018-10-01T13:09:21.347Z,54.70
2018-10-01T13:11:50.511Z,54.75
2018-10-01T13:14:19.677Z,54.36
2018-10-01T13:16:48.896Z,54.44
2018-10-01T13:19:18.949Z,54.41
2018-10-01T13:21:49.307Z,54.24
2018-10-01T13:24:18.794Z,54.16
2018-10-01T13:26:48.016Z,54.14
2018-10-01T13:29:17.345Z,53.94
2018-10-01T13:31:46.954Z,53.50
2018-10-01T13:34:17.013Z,53.46
2018-10-01T13:36:47.221Z,53.57
2018-10-01T13:39:16.520Z,53.80
2018-10-01T13:41:56.040Z,54.09
2018-10-01T13:44:26.833Z,54.10
2018-10-01T13:46:56.125Z,53.62
2018-10-01T13:49:26.345Z,53.48
2018-10-01T13:51:57.138Z,53.56
2018-10-01T13:54:29.722Z,53.54
2018-10-01T13:56:58.796Z,53.32
2018-10-01T13:59:27.817Z,53.48
2018-10-01T14:01:57.134Z,53.32
2018-10-01T14:04:26.185Z,52.99
2018-10-01T14:06:55.328Z,53.23
2018-10-01T14:09:24.926Z,53.29
2018-10-01T14:11:55.969Z,53.27
2018-10-01T14:14:25.182Z,53.20
2018-10-01T14:17:03.078Z,52.64
2018-10-01T14:19:46.837Z,52.48
2018-10-01T14:22:19.087Z,52.23
2018-10-01T14:24:49.508Z,52.03
2018-10-01T14:27:19.782Z,52.14
2018-10-01T14:29:49.349Z,52.00
2018-10-01T14:32:18.528Z,52.26
2018-10-01T14:34:47.824Z,52.59
2018-10-01T14:37:16.896Z,52.86
2018-10-01T14:39:45.987Z,52.70
2018-10-01T14:42:15.729Z,52.44
2018-10-01T14:44:44.892Z,52.89
2018-10-01T14:47:14.006Z,52.63
2018-10-01T14:49:43.560Z,52.02
2018-10-01T14:52:15.299Z,52.09
2018-10-01T14:54:44.689Z,51.92
2018-10-01T14:57:13.773Z,52.26
2018-10-01T14:59:43.122Z,52.57
2018-10-01T15:02:12.276Z,52.60
2018-10-01T15:04:41.327Z,52.40
2018-10-01T15:07:10.377Z,52.04
2018-10-01T15:09:39.500Z,52.15
2018-10-01T15:12:08.732Z,51.65
2018-10-01T15:14:37.751Z,51.82
2018-10-01T15:17:07.228Z,51.85
2018-10-01T15:19:36.397Z,52.23
2018-10-01T15:22:06.679Z,52.26
2018-10-01T15:24:35.866Z,52.24
2018-10-01T15:29:46.198Z,51.74
2018-10-01T15:32:15.499Z,52.07
2018-10-01T15:34:44.676Z,52.49
2018-10-01T15:37:13.798Z,52.66
2018-10-01T15:39:42.936Z,52.28
2018-10-01T15:42:12.152Z,52.27
2018-10-01T15:44:42.265Z,52.36
2018-10-01T15:47:11.809Z,52.50
2018-10-01T15:49:40.945Z,52.84
2018-10-01T15:52:10.127Z,52.79
2018-10-01T15:54:39.335Z,52.73
2018-10-01T15:57:09.079Z,52.38
2018-10-01T16:02:30.935Z,52.74
2018-10-01T16:05:01.236Z,52.50
2018-10-01T16:07:30.285Z,52.32
2018-10-01T16:10:00.142Z,52.48
2018-10-01T16:12:29.538Z,52.47
2018-10-01T16:14:58.648Z,52.27
2018-10-01T16:17:27.732Z,52.39
2018-10-01T16:20:21.142Z,52.60
2018-10-01T16:22:54.313Z,52.69
2018-10-01T16:25:23.876Z,52.31
2018-10-01T16:27:53.004Z,52.18
2018-10-01T16:30:22.240Z,52.94
2018-10-01T16:32:51.697Z,52.38
2018-10-01T16:35:22.711Z,52.70
2018-10-01T16:37:51.872Z,52.65
2018-10-01T16:40:20.929Z,52.39
2018-10-01T16:42:50.858Z,52.17
2018-10-01T16:45:20.220Z,52.28
2018-10-01T16:47:50.161Z,52.59
2018-10-01T16:50:19.233Z,52.82
2018-10-01T16:52:50.855Z,53.12
2018-10-01T16:55:20.491Z,52.96
2018-10-01T16:57:49.615Z,52.92
2018-10-01T17:00:19.610Z,53.14
2018-10-01T17:02:50.675Z,53.13
2018-10-01T17:05:19.837Z,53.39
2018-10-01T17:07:48.862Z,53.46
2018-10-01T17:10:18.168Z,53.36
2018-10-01T17:12:47.236Z,53.34
2018-10-01T17:15:16.417Z,53.37
2018-10-01T17:17:45.499Z,53.69
2018-10-01T17:20:14.546Z,53.36
2018-10-01T17:22:43.605Z,53.35
2018-10-01T17:25:12.763Z,53.56
2018-10-01T17:27:41.787Z,53.57
2018-10-01T17:30:11.688Z,53.55
2018-10-01T17:32:40.848Z,53.74
2018-10-01T17:35:09.938Z,53.93
2018-10-01T17:37:38.941Z,53.92
2018-10-01T17:40:14.611Z,54.13
2018-10-01T17:42:43.750Z,54.27
2018-10-01T17:45:12.779Z,54.21
2018-10-01T17:47:43.892Z,54.01
2018-10-01T17:50:17.162Z,54.15
2018-10-01T17:52:46.201Z,54.22
2018-10-01T17:55:15.303Z,54.46
2018-10-01T17:57:44.493Z,54.46
2018-10-01T18:00:14.424Z,54.67
2018-10-01T18:02:43.505Z,54.48
2018-10-01T18:05:13.582Z,54.73
2018-10-01T18:07:49.351Z,54.89
2018-10-01T18:10:18.575Z,54.59
2018-10-01T18:12:47.563Z,54.86
2018-10-01T18:15:16.682Z,54.90
2018-10-01T18:17:45.873Z,55.00
2018-10-01T18:20:14.914Z,55.19
2018-10-01T18:22:43.981Z,55.30
2018-10-01T18:25:13.759Z,55.42
2018-10-01T18:27:43.473Z,55.32
2018-10-01T18:30:12.677Z,55.39
2018-10-01T18:32:41.872Z,55.49
2018-10-01T18:35:10.972Z,55.28
2018-10-01T18:37:40.013Z,55.16
2018-10-01T18:40:11.554Z,55.46
2018-10-01T18:42:40.572Z,55.50
2018-10-01T18:45:10.373Z,55.61
2018-10-01T18:47:39.480Z,55.92
2018-10-01T18:50:09.015Z,55.76
2018-10-01T18:52:38.027Z,56.05
2018-10-01T18:55:07.948Z,55.84
2018-10-01T18:57:38.248Z,55.65
2018-10-01T19:00:08.841Z,55.77
2018-10-01T19:02:38.749Z,55.82
2018-10-01T19:05:08.552Z,55.67
2018-10-01T19:07:37.804Z,56.12
2018-10-01T19:10:08.207Z,56.02
2018-10-01T19:12:38.207Z,56.06
2018-10-01T19:15:08.856Z,56.09
2018-10-01T19:17:38.396Z,56.18
2018-10-01T19:20:07.473Z,56.02
2018-10-01T19:22:37.718Z,56.12
2018-10-01T19:25:07.011Z,56.19
2018-10-01T19:27:36.948Z,56.58
2018-10-01T19:30:06.403Z,56.74
2018-10-01T19:32:35.516Z,56.72
2018-10-01T19:35:04.713Z,56.37
2018-10-01T19:37:33.942Z,56.62
2018-10-01T19:40:03.909Z,56.92
2018-10-01T19:42:33.141Z,56.86
2018-10-01T19:45:02.227Z,56.89
2018-10-01T19:47:31.216Z,56.76
2018-10-01T19:50:00.516Z,56.93
2018-10-01T19:52:29.511Z,57.19
2018-10-01T19:54:58.624Z,57.10
2018-10-01T19:57:27.597Z,57.19
2018-10-01T19:59:56.592Z,57.38
2018-10-01T20:02:25.591Z,57.51
2018-10-01T20:04:54.644Z,57.34
2018-10-01T20:07:23.593Z,57.52
2018-10-01T20:09:52.720Z,57.61
2018-10-01T20:12:22.540Z,57.45
2018-10-01T20:14:51.651Z,57.44
2018-10-01T20:17:20.985Z,57.33
2018-10-01T20:19:49.967Z,57.69
2018-10-01T20:22:19.062Z,57.87
2018-10-01T20:24:49.325Z,57.93
2018-10-01T20:27:18.445Z,58.03
2018-10-01T20:29:47.641Z,57.95
2018-10-01T20:32:16.584Z,58.19
2018-10-01T20:34:45.630Z,58.08
2018-10-01T20:37:14.636Z,58.38
2018-10-01T20:39:43.728Z,58.73
2018-10-01T20:42:12.766Z,58.62
2018-10-01T20:44:43.661Z,58.65
2018-10-01T20:47:14.060Z,58.81
2018-10-01T20:49:43.627Z,58.71
2018-10-01T20:52:12.636Z,58.90
2018-10-01T20:54:41.705Z,58.97
2018-10-01T20:57:10.769Z,59.02
2018-10-01T20:59:39.816Z,58.96
2018-10-01T21:02:08.871Z,58.80
2018-10-01T21:04:37.931Z,59.15
2018-10-01T21:07:06.940Z,59.03
2018-10-01T21:09:36.032Z,59.37
2018-10-01T21:12:05.150Z,59.25
2018-10-01T21:14:34.284Z,59.57
2018-10-01T21:17:04.165Z,59.50
2018-10-01T21:19:33.219Z,59.50
2018-10-01T21:22:02.454Z,59.80
2018-10-01T21:24:31.597Z,59.88
2018-10-01T21:27:01.436Z,60.31
2018-10-01T21:29:30.480Z,60.25
2018-10-01T21:31:59.636Z,60.03
2018-10-01T21:34:28.774Z,60.43
2018-10-01T21:36:57.897Z,60.44
2018-10-01T21:40:31.426Z,61.01
2018-10-01T21:43:00.509Z,60.76
2018-10-01T21:45:29.693Z,61.09
2018-10-01T21:47:58.790Z,61.01
2018-10-01T21:50:27.925Z,61.44
2018-10-01T21:52:56.982Z,61.68
2018-10-01T21:55:26.356Z,61.57
2018-10-01T21:57:55.456Z,61.78
2018-10-01T22:00:24.523Z,61.91
2018-10-01T22:02:54.623Z,61.80
2018-10-01T22:05:24.548Z,61.99
2018-10-01T22:07:53.728Z,62.47
2018-10-01T22:10:22.983Z,62.07
2018-10-01T22:12:55.224Z,62.34
2018-10-01T22:15:24.762Z,62.57
2018-10-01T22:17:53.817Z,62.72
2018-10-01T22:20:39.844Z,62.76
2018-10-01T22:23:09.225Z,62.90
2018-10-01T22:25:54.818Z,62.77
2018-10-01T22:28:39.262Z,63.02
2018-10-01T22:31:26.550Z,63.26
2018-10-01T22:34:14.686Z,63.50
2018-10-01T22:36:48.430Z,63.56
2018-10-01T22:39:24.144Z,63.49
2018-10-01T22:42:07.383Z,63.73
2018-10-01T22:44:49.381Z,63.84
2018-10-01T22:47:33.480Z,64.22
2018-10-01T22:50:18.141Z,64.02
2018-10-01T22:52:47.260Z,63.64
2018-10-01T22:55:29.704Z,63.66
2018-10-01T22:57:59.039Z,64.23
2018-10-01T23:00:44.394Z,64.33
2018-10-01T23:03:30.259Z,64.22
2018-10-01T23:06:14.553Z,64.25
2018-10-01T23:08:57.686Z,64.15
2018-10-01T23:11:41.453Z,64.30
2018-10-01T23:14:10.514Z,64.25
2018-10-01T23:16:39.547Z,64.16
2018-10-01T23:19:08.598Z,64.28
2018-10-01T23:21:37.721Z,64.52
2018-10-01T23:24:06.816Z,64.66
2018-10-01T23:26:35.857Z,64.64
2018-10-01T23:29:04.929Z,64.49
2018-10-01T23:31:33.982Z,64.47
2018-10-01T23:34:02.985Z,64.98
2018-10-01T23:36:31.970Z,64.83
2018-10-01T23:39:01.054Z,65.03
2018-10-01T23:41:30.060Z,64.85
2018-10-01T23:43:59.203Z,64.98
2018-10-01T23:46:28.209Z,64.96
2018-10-01T23:48:57.330Z,65.25
2018-10-01T23:51:27.563Z,64.92
2018-10-01T23:53:56.921Z,65.33
2018-10-01T23:56:25.965Z,65.57
2018-10-01T23:58:56.165Z,65.58
